sensor_id;sensor_type;location;lat;lon;timestamp;P1;durP1;ratioP1;P2;durP2;ratioP2
56537;SDS011;42435;53.292;6.000;2023-07-09T00:00:15;8.48;;;7.32;;
56537;SDS011;42435;53.292;6.000;2023-07-09T00:02:42;10.20;;;8.18;;
56537;SDS011;42435;53.292;6.000;2023-07-09T00:05:12;9.85;;;8.77;;
56537;SDS011;42435;53.292;6.000;2023-07-09T00:07:40;9.48;;;8.25;;
56537;SDS011;42435;53.292;6.000;2023-07-09T00:10:13;10.20;;;7.45;;
56537;SDS011;42435;53.292;6.000;2023-07-09T00:12:43;12.38;;;8.48;;
56537;SDS011;42435;53.292;6.000;2023-07-09T00:15:10;9.00;;;7.82;;
56537;SDS011;42435;53.292;6.000;2023-07-09T00:17:36;11.48;;;8.45;;
56537;SDS011;42435;53.292;6.000;2023-07-09T00:20:05;12.25;;;8.75;;
56537;SDS011;42435;53.292;6.000;2023-07-09T00:22:38;10.95;;;8.50;;
56537;SDS011;42435;53.292;6.000;2023-07-09T00:25:04;9.77;;;8.25;;
56537;SDS011;42435;53.292;6.000;2023-07-09T00:27:30;10.55;;;8.98;;
56537;SDS011;42435;53.292;6.000;2023-07-09T00:29:55;10.05;;;8.27;;
56537;SDS011;42435;53.292;6.000;2023-07-09T00:32:21;10.77;;;7.80;;
56537;SDS011;42435;53.292;6.000;2023-07-09T00:34:47;9.80;;;8.02;;
56537;SDS011;42435;53.292;6.000;2023-07-09T00:37:18;11.25;;;8.57;;
56537;SDS011;42435;53.292;6.000;2023-07-09T00:39:45;9.95;;;8.23;;
56537;SDS011;42435;53.292;6.000;2023-07-09T00:42:15;9.38;;;8.30;;
56537;SDS011;42435;53.292;6.000;2023-07-09T00:44:46;10.63;;;8.02;;
56537;SDS011;42435;53.292;6.000;2023-07-09T00:49:59;10.15;;;8.70;;
56537;SDS011;42435;53.292;6.000;2023-07-09T00:52:44;12.38;;;9.52;;
56537;SDS011;42435;53.292;6.000;2023-07-09T00:55:19;10.32;;;8.05;;
56537;SDS011;42435;53.292;6.000;2023-07-09T00:57:48;10.25;;;8.55;;
56537;SDS011;42435;53.292;6.000;2023-07-09T01:00:21;13.43;;;8.20;;
56537;SDS011;42435;53.292;6.000;2023-07-09T01:03:07;9.57;;;8.02;;
56537;SDS011;42435;53.292;6.000;2023-07-09T01:05:35;14.88;;;9.15;;
56537;SDS011;42435;53.292;6.000;2023-07-09T01:08:03;10.52;;;8.63;;
56537;SDS011;42435;53.292;6.000;2023-07-09T01:10:30;10.43;;;8.32;;
56537;SDS011;42435;53.292;6.000;2023-07-09T01:12:56;11.52;;;9.07;;
56537;SDS011;42435;53.292;6.000;2023-07-09T01:15:21;10.95;;;8.40;;
56537;SDS011;42435;53.292;6.000;2023-07-09T01:17:47;9.48;;;8.43;;
56537;SDS011;42435;53.292;6.000;2023-07-09T01:20:18;11.75;;;8.63;;
56537;SDS011;42435;53.292;6.000;2023-07-09T01:22:47;12.50;;;8.23;;
56537;SDS011;42435;53.292;6.000;2023-07-09T01:25:14;12.13;;;9.23;;
56537;SDS011;42435;53.292;6.000;2023-07-09T01:27:41;9.98;;;7.88;;
56537;SDS011;42435;53.292;6.000;2023-07-09T01:30:13;11.48;;;9.15;;
56537;SDS011;42435;53.292;6.000;2023-07-09T01:32:48;10.43;;;9.32;;
56537;SDS011;42435;53.292;6.000;2023-07-09T01:35:15;10.52;;;8.80;;
56537;SDS011;42435;53.292;6.000;2023-07-09T01:37:44;10.57;;;8.65;;
56537;SDS011;42435;53.292;6.000;2023-07-09T01:40:13;11.38;;;9.15;;
56537;SDS011;42435;53.292;6.000;2023-07-09T01:42:41;10.93;;;8.85;;
56537;SDS011;42435;53.292;6.000;2023-07-09T01:45:08;10.35;;;8.88;;
56537;SDS011;42435;53.292;6.000;2023-07-09T01:47:35;12.23;;;9.38;;
56537;SDS011;42435;53.292;6.000;2023-07-09T01:50:05;10.77;;;8.65;;
56537;SDS011;42435;53.292;6.000;2023-07-09T01:52:32;11.82;;;8.18;;
56537;SDS011;42435;53.292;6.000;2023-07-09T01:54:58;11.82;;;9.32;;
56537;SDS011;42435;53.292;6.000;2023-07-09T01:57:26;12.93;;;9.43;;
56537;SDS011;42435;53.292;6.000;2023-07-09T01:59:58;11.43;;;9.00;;
56537;SDS011;42435;53.292;6.000;2023-07-09T02:02:26;13.95;;;9.25;;
56537;SDS011;42435;53.292;6.000;2023-07-09T02:04:53;10.43;;;9.05;;
56537;SDS011;42435;53.292;6.000;2023-07-09T02:07:21;12.07;;;9.07;;
56537;SDS011;42435;53.292;6.000;2023-07-09T02:09:48;12.05;;;9.27;;
56537;SDS011;42435;53.292;6.000;2023-07-09T02:12:15;10.95;;;9.52;;
56537;SDS011;42435;53.292;6.000;2023-07-09T02:14:41;11.95;;;9.10;;
56537;SDS011;42435;53.292;6.000;2023-07-09T02:17:11;11.70;;;9.40;;
56537;SDS011;42435;53.292;6.000;2023-07-09T02:19:38;9.93;;;8.90;;
56537;SDS011;42435;53.292;6.000;2023-07-09T02:22:04;10.75;;;9.45;;
56537;SDS011;42435;53.292;6.000;2023-07-09T02:24:30;11.98;;;9.88;;
56537;SDS011;42435;53.292;6.000;2023-07-09T02:26:56;11.25;;;9.32;;
56537;SDS011;42435;53.292;6.000;2023-07-09T02:29:23;11.65;;;10.43;;
56537;SDS011;42435;53.292;6.000;2023-07-09T02:31:50;10.73;;;9.27;;
56537;SDS011;42435;53.292;6.000;2023-07-09T02:34:17;11.32;;;8.90;;
56537;SDS011;42435;53.292;6.000;2023-07-09T02:36:43;11.18;;;9.93;;
56537;SDS011;42435;53.292;6.000;2023-07-09T02:39:09;10.68;;;9.57;;
56537;SDS011;42435;53.292;6.000;2023-07-09T02:41:36;16.48;;;10.77;;
56537;SDS011;42435;53.292;6.000;2023-07-09T02:44:02;12.85;;;9.43;;
56537;SDS011;42435;53.292;6.000;2023-07-09T02:46:28;15.80;;;11.65;;
56537;SDS011;42435;53.292;6.000;2023-07-09T02:48:54;16.35;;;10.73;;
56537;SDS011;42435;53.292;6.000;2023-07-09T02:51:20;13.63;;;10.43;;
56537;SDS011;42435;53.292;6.000;2023-07-09T02:53:46;20.95;;;11.43;;
56537;SDS011;42435;53.292;6.000;2023-07-09T02:56:12;21.73;;;10.82;;
56537;SDS011;42435;53.292;6.000;2023-07-09T02:58:38;16.25;;;11.57;;
56537;SDS011;42435;53.292;6.000;2023-07-09T03:01:03;17.58;;;11.25;;
56537;SDS011;42435;53.292;6.000;2023-07-09T03:03:30;15.27;;;10.70;;
56537;SDS011;42435;53.292;6.000;2023-07-09T03:05:56;14.38;;;10.45;;
56537;SDS011;42435;53.292;6.000;2023-07-09T03:08:22;17.73;;;11.23;;
56537;SDS011;42435;53.292;6.000;2023-07-09T03:10:51;16.17;;;12.32;;
56537;SDS011;42435;53.292;6.000;2023-07-09T03:13:16;22.05;;;12.00;;
56537;SDS011;42435;53.292;6.000;2023-07-09T03:15:42;17.02;;;11.70;;
56537;SDS011;42435;53.292;6.000;2023-07-09T03:18:10;14.68;;;10.38;;
56537;SDS011;42435;53.292;6.000;2023-07-09T03:20:36;16.67;;;11.38;;
56537;SDS011;42435;53.292;6.000;2023-07-09T03:23:03;14.13;;;10.05;;
56537;SDS011;42435;53.292;6.000;2023-07-09T03:25:29;11.60;;;9.95;;
56537;SDS011;42435;53.292;6.000;2023-07-09T03:27:55;13.32;;;9.77;;
56537;SDS011;42435;53.292;6.000;2023-07-09T03:30:20;12.13;;;9.88;;
56537;SDS011;42435;53.292;6.000;2023-07-09T03:32:46;13.93;;;10.63;;
56537;SDS011;42435;53.292;6.000;2023-07-09T03:35:12;14.27;;;10.02;;
56537;SDS011;42435;53.292;6.000;2023-07-09T03:37:37;13.88;;;10.77;;
56537;SDS011;42435;53.292;6.000;2023-07-09T03:40:03;10.57;;;9.48;;
56537;SDS011;42435;53.292;6.000;2023-07-09T03:42:29;15.93;;;10.75;;
56537;SDS011;42435;53.292;6.000;2023-07-09T03:44:55;11.98;;;10.38;;
56537;SDS011;42435;53.292;6.000;2023-07-09T03:47:20;12.20;;;10.57;;
56537;SDS011;42435;53.292;6.000;2023-07-09T03:49:46;13.15;;;10.23;;
56537;SDS011;42435;53.292;6.000;2023-07-09T03:52:11;13.07;;;9.63;;
56537;SDS011;42435;53.292;6.000;2023-07-09T03:54:37;12.73;;;10.80;;
56537;SDS011;42435;53.292;6.000;2023-07-09T03:57:02;15.35;;;10.68;;
56537;SDS011;42435;53.292;6.000;2023-07-09T03:59:28;14.10;;;10.73;;
56537;SDS011;42435;53.292;6.000;2023-07-09T04:01:54;13.10;;;9.38;;
56537;SDS011;42435;53.292;6.000;2023-07-09T04:04:19;14.50;;;10.77;;
56537;SDS011;42435;53.292;6.000;2023-07-09T04:06:45;11.07;;;9.95;;
56537;SDS011;42435;53.292;6.000;2023-07-09T04:09:11;13.48;;;10.10;;
56537;SDS011;42435;53.292;6.000;2023-07-09T04:11:37;10.38;;;9.23;;
56537;SDS011;42435;53.292;6.000;2023-07-09T04:14:03;10.82;;;9.70;;
56537;SDS011;42435;53.292;6.000;2023-07-09T04:16:32;11.45;;;9.30;;
56537;SDS011;42435;53.292;6.000;2023-07-09T04:18:59;15.20;;;10.50;;
56537;SDS011;42435;53.292;6.000;2023-07-09T04:21:24;12.55;;;10.13;;
56537;SDS011;42435;53.292;6.000;2023-07-09T04:23:50;10.70;;;9.57;;
56537;SDS011;42435;53.292;6.000;2023-07-09T04:26:18;11.52;;;9.68;;
56537;SDS011;42435;53.292;6.000;2023-07-09T04:28:44;15.30;;;10.15;;
56537;SDS011;42435;53.292;6.000;2023-07-09T04:31:09;11.70;;;9.60;;
56537;SDS011;42435;53.292;6.000;2023-07-09T04:33:35;13.85;;;10.13;;
56537;SDS011;42435;53.292;6.000;2023-07-09T04:36:02;13.95;;;10.43;;
56537;SDS011;42435;53.292;6.000;2023-07-09T04:38:30;12.63;;;10.27;;
56537;SDS011;42435;53.292;6.000;2023-07-09T04:40:56;13.43;;;10.68;;
56537;SDS011;42435;53.292;6.000;2023-07-09T04:43:21;12.57;;;10.43;;
56537;SDS011;42435;53.292;6.000;2023-07-09T04:45:47;14.10;;;10.43;;
56537;SDS011;42435;53.292;6.000;2023-07-09T04:48:13;10.77;;;8.98;;
56537;SDS011;42435;53.292;6.000;2023-07-09T04:50:38;11.20;;;9.85;;
56537;SDS011;42435;53.292;6.000;2023-07-09T04:53:06;11.98;;;10.52;;
56537;SDS011;42435;53.292;6.000;2023-07-09T04:55:32;12.02;;;9.88;;
56537;SDS011;42435;53.292;6.000;2023-07-09T04:57:58;13.25;;;10.15;;
56537;SDS011;42435;53.292;6.000;2023-07-09T05:00:23;11.73;;;10.30;;
56537;SDS011;42435;53.292;6.000;2023-07-09T05:02:49;11.23;;;10.13;;
56537;SDS011;42435;53.292;6.000;2023-07-09T05:05:14;11.90;;;9.90;;
56537;SDS011;42435;53.292;6.000;2023-07-09T05:07:40;11.68;;;9.88;;
56537;SDS011;42435;53.292;6.000;2023-07-09T05:10:06;11.38;;;10.20;;
56537;SDS011;42435;53.292;6.000;2023-07-09T05:12:35;12.85;;;9.95;;
56537;SDS011;42435;53.292;6.000;2023-07-09T05:15:01;12.35;;;9.63;;
56537;SDS011;42435;53.292;6.000;2023-07-09T05:17:26;12.25;;;10.48;;
56537;SDS011;42435;53.292;6.000;2023-07-09T05:19:52;11.88;;;9.93;;
56537;SDS011;42435;53.292;6.000;2023-07-09T05:22:18;12.48;;;10.52;;
56537;SDS011;42435;53.292;6.000;2023-07-09T05:24:43;12.52;;;10.45;;
56537;SDS011;42435;53.292;6.000;2023-07-09T05:27:09;11.88;;;10.20;;
56537;SDS011;42435;53.292;6.000;2023-07-09T05:29:34;12.43;;;9.93;;
56537;SDS011;42435;53.292;6.000;2023-07-09T05:32:00;12.65;;;10.70;;
56537;SDS011;42435;53.292;6.000;2023-07-09T05:34:25;12.27;;;10.07;;
56537;SDS011;42435;53.292;6.000;2023-07-09T05:36:52;15.93;;;10.75;;
56537;SDS011;42435;53.292;6.000;2023-07-09T05:39:19;12.63;;;10.27;;
56537;SDS011;42435;53.292;6.000;2023-07-09T05:41:45;12.10;;;9.93;;
56537;SDS011;42435;53.292;6.000;2023-07-09T05:44:11;13.48;;;10.30;;
56537;SDS011;42435;53.292;6.000;2023-07-09T05:46:36;15.00;;;9.65;;
56537;SDS011;42435;53.292;6.000;2023-07-09T05:49:05;14.40;;;10.75;;
56537;SDS011;42435;53.292;6.000;2023-07-09T05:51:32;13.57;;;10.38;;
56537;SDS011;42435;53.292;6.000;2023-07-09T05:53:57;11.23;;;9.60;;
56537;SDS011;42435;53.292;6.000;2023-07-09T05:56:23;11.05;;;9.75;;
56537;SDS011;42435;53.292;6.000;2023-07-09T05:58:49;12.10;;;9.88;;
56537;SDS011;42435;53.292;6.000;2023-07-09T06:01:14;13.77;;;11.25;;
56537;SDS011;42435;53.292;6.000;2023-07-09T06:03:40;11.43;;;10.07;;
56537;SDS011;42435;53.292;6.000;2023-07-09T06:06:05;12.85;;;11.48;;
56537;SDS011;42435;53.292;6.000;2023-07-09T06:08:31;13.05;;;11.13;;
56537;SDS011;42435;53.292;6.000;2023-07-09T06:10:58;13.10;;;10.82;;
56537;SDS011;42435;53.292;6.000;2023-07-09T06:13:29;11.60;;;10.38;;
56537;SDS011;42435;53.292;6.000;2023-07-09T06:15:56;11.50;;;10.15;;
56537;SDS011;42435;53.292;6.000;2023-07-09T06:18:23;11.55;;;10.20;;
56537;SDS011;42435;53.292;6.000;2023-07-09T06:20:50;13.30;;;11.10;;
56537;SDS011;42435;53.292;6.000;2023-07-09T06:23:17;13.48;;;9.75;;
56537;SDS011;42435;53.292;6.000;2023-07-09T06:25:44;15.38;;;10.68;;
56537;SDS011;42435;53.292;6.000;2023-07-09T06:28:18;15.70;;;10.88;;
56537;SDS011;42435;53.292;6.000;2023-07-09T06:30:48;11.57;;;10.30;;
56537;SDS011;42435;53.292;6.000;2023-07-09T06:33:15;12.68;;;10.05;;
56537;SDS011;42435;53.292;6.000;2023-07-09T06:35:51;11.65;;;9.70;;
56537;SDS011;42435;53.292;6.000;2023-07-09T06:38:21;10.23;;;9.23;;
56537;SDS011;42435;53.292;6.000;2023-07-09T06:40:47;12.20;;;10.00;;
56537;SDS011;42435;53.292;6.000;2023-07-09T06:43:13;12.73;;;9.80;;
56537;SDS011;42435;53.292;6.000;2023-07-09T06:45:39;12.30;;;9.88;;
56537;SDS011;42435;53.292;6.000;2023-07-09T06:48:17;11.15;;;9.57;;
56537;SDS011;42435;53.292;6.000;2023-07-09T06:50:44;11.07;;;9.98;;
56537;SDS011;42435;53.292;6.000;2023-07-09T06:53:10;12.45;;;10.15;;
56537;SDS011;42435;53.292;6.000;2023-07-09T06:55:36;11.55;;;10.02;;
56537;SDS011;42435;53.292;6.000;2023-07-09T06:58:02;13.95;;;10.57;;
56537;SDS011;42435;53.292;6.000;2023-07-09T07:00:27;11.18;;;9.57;;
56537;SDS011;42435;53.292;6.000;2023-07-09T07:02:56;14.32;;;9.95;;
56537;SDS011;42435;53.292;6.000;2023-07-09T07:05:22;14.93;;;11.43;;
56537;SDS011;42435;53.292;6.000;2023-07-09T07:07:48;15.27;;;11.27;;
56537;SDS011;42435;53.292;6.000;2023-07-09T07:10:13;13.38;;;11.40;;
56537;SDS011;42435;53.292;6.000;2023-07-09T07:12:43;15.82;;;11.85;;
56537;SDS011;42435;53.292;6.000;2023-07-09T07:15:10;14.50;;;10.75;;
56537;SDS011;42435;53.292;6.000;2023-07-09T07:17:40;12.65;;;11.35;;
56537;SDS011;42435;53.292;6.000;2023-07-09T07:20:06;14.95;;;12.55;;
56537;SDS011;42435;53.292;6.000;2023-07-09T07:22:32;13.85;;;12.43;;
56537;SDS011;42435;53.292;6.000;2023-07-09T07:24:58;13.27;;;11.73;;
56537;SDS011;42435;53.292;6.000;2023-07-09T07:27:23;14.35;;;12.85;;
56537;SDS011;42435;53.292;6.000;2023-07-09T07:29:49;13.82;;;12.30;;
56537;SDS011;42435;53.292;6.000;2023-07-09T07:32:15;13.38;;;11.82;;
56537;SDS011;42435;53.292;6.000;2023-07-09T07:34:40;17.17;;;13.18;;
56537;SDS011;42435;53.292;6.000;2023-07-09T07:37:06;15.68;;;14.05;;
56537;SDS011;42435;53.292;6.000;2023-07-09T07:39:33;15.57;;;13.75;;
56537;SDS011;42435;53.292;6.000;2023-07-09T07:41:59;14.65;;;13.05;;
56537;SDS011;42435;53.292;6.000;2023-07-09T07:44:24;14.07;;;12.23;;
56537;SDS011;42435;53.292;6.000;2023-07-09T07:46:50;14.38;;;12.88;;
56537;SDS011;42435;53.292;6.000;2023-07-09T07:49:16;15.02;;;13.45;;
56537;SDS011;42435;53.292;6.000;2023-07-09T07:51:41;18.98;;;14.13;;
56537;SDS011;42435;53.292;6.000;2023-07-09T07:54:07;16.83;;;15.07;;
56537;SDS011;42435;53.292;6.000;2023-07-09T07:56:35;15.65;;;13.98;;
56537;SDS011;42435;53.292;6.000;2023-07-09T07:59:01;17.52;;;14.05;;
56537;SDS011;42435;53.292;6.000;2023-07-09T08:01:27;17.83;;;14.52;;
56537;SDS011;42435;53.292;6.000;2023-07-09T08:03:53;18.30;;;16.45;;
56537;SDS011;42435;53.292;6.000;2023-07-09T08:06:19;18.50;;;16.55;;
56537;SDS011;42435;53.292;6.000;2023-07-09T08:08:46;19.63;;;16.77;;
56537;SDS011;42435;53.292;6.000;2023-07-09T08:11:11;19.65;;;17.27;;
56537;SDS011;42435;53.292;6.000;2023-07-09T08:13:37;18.92;;;16.67;;
56537;SDS011;42435;53.292;6.000;2023-07-09T08:16:04;19.33;;;17.08;;
56537;SDS011;42435;53.292;6.000;2023-07-09T08:18:30;19.42;;;15.43;;
56537;SDS011;42435;53.292;6.000;2023-07-09T08:20:58;17.77;;;15.98;;
56537;SDS011;42435;53.292;6.000;2023-07-09T08:23:25;16.23;;;14.43;;
56537;SDS011;42435;53.292;6.000;2023-07-09T08:25:54;17.90;;;15.40;;
56537;SDS011;42435;53.292;6.000;2023-07-09T08:28:20;20.55;;;15.55;;
56537;SDS011;42435;53.292;6.000;2023-07-09T08:30:46;20.42;;;17.15;;
56537;SDS011;42435;53.292;6.000;2023-07-09T08:33:11;16.63;;;14.20;;
56537;SDS011;42435;53.292;6.000;2023-07-09T08:35:37;13.10;;;11.80;;
56537;SDS011;42435;53.292;6.000;2023-07-09T08:38:03;13.93;;;12.45;;
56537;SDS011;42435;53.292;6.000;2023-07-09T08:40:29;12.73;;;11.25;;
56537;SDS011;42435;53.292;6.000;2023-07-09T08:42:56;12.18;;;9.95;;
56537;SDS011;42435;53.292;6.000;2023-07-09T08:45:49;15.07;;;9.95;;
56537;SDS011;42435;53.292;6.000;2023-07-09T08:48:25;12.60;;;9.77;;
56537;SDS011;42435;53.292;6.000;2023-07-09T08:50:59;12.88;;;11.00;;
56537;SDS011;42435;53.292;6.000;2023-07-09T08:53:44;14.35;;;11.02;;
56537;SDS011;42435;53.292;6.000;2023-07-09T08:56:18;13.25;;;10.80;;
56537;SDS011;42435;53.292;6.000;2023-07-09T08:58:44;14.00;;;11.40;;
56537;SDS011;42435;53.292;6.000;2023-07-09T09:01:24;13.88;;;11.15;;
56537;SDS011;42435;53.292;6.000;2023-07-09T09:04:00;15.27;;;11.93;;
56537;SDS011;42435;53.292;6.000;2023-07-09T09:11:45;12.25;;;10.80;;
56537;SDS011;42435;53.292;6.000;2023-07-09T09:16:47;11.10;;;7.85;;
56537;SDS011;42435;53.292;6.000;2023-07-09T09:19:23;7.05;;;5.90;;
56537;SDS011;42435;53.292;6.000;2023-07-09T09:21:57;8.20;;;6.47;;
56537;SDS011;42435;53.292;6.000;2023-07-09T09:24:43;8.85;;;5.80;;
56537;SDS011;42435;53.292;6.000;2023-07-09T09:27:13;8.13;;;5.93;;
56537;SDS011;42435;53.292;6.000;2023-07-09T09:29:39;7.13;;;5.88;;
56537;SDS011;42435;53.292;6.000;2023-07-09T09:32:22;6.18;;;5.55;;
56537;SDS011;42435;53.292;6.000;2023-07-09T09:34:52;8.15;;;5.80;;
56537;SDS011;42435;53.292;6.000;2023-07-09T09:37:24;8.63;;;6.63;;
56537;SDS011;42435;53.292;6.000;2023-07-09T09:39:52;9.23;;;6.38;;
56537;SDS011;42435;53.292;6.000;2023-07-09T09:42:18;8.57;;;6.97;;
56537;SDS011;42435;53.292;6.000;2023-07-09T09:44:44;7.68;;;5.50;;
56537;SDS011;42435;53.292;6.000;2023-07-09T09:47:11;7.40;;;5.50;;
56537;SDS011;42435;53.292;6.000;2023-07-09T09:49:38;8.57;;;5.80;;
56537;SDS011;42435;53.292;6.000;2023-07-09T09:52:14;6.33;;;5.40;;
56537;SDS011;42435;53.292;6.000;2023-07-09T09:54:51;7.72;;;5.43;;
56537;SDS011;42435;53.292;6.000;2023-07-09T09:57:21;6.82;;;5.43;;
56537;SDS011;42435;53.292;6.000;2023-07-09T09:59:49;8.88;;;5.72;;
56537;SDS011;42435;53.292;6.000;2023-07-09T10:02:21;7.88;;;5.70;;
56537;SDS011;42435;53.292;6.000;2023-07-09T10:04:52;7.35;;;5.95;;
56537;SDS011;42435;53.292;6.000;2023-07-09T10:07:20;6.95;;;5.72;;
56537;SDS011;42435;53.292;6.000;2023-07-09T10:09:55;7.95;;;5.53;;
56537;SDS011;42435;53.292;6.000;2023-07-09T10:18:36;6.53;;;4.78;;
56537;SDS011;42435;53.292;6.000;2023-07-09T10:21:31;5.68;;;4.38;;
56537;SDS011;42435;53.292;6.000;2023-07-09T10:24:25;5.40;;;4.60;;
56537;SDS011;42435;53.292;6.000;2023-07-09T10:27:14;7.40;;;5.10;;
56537;SDS011;42435;53.292;6.000;2023-07-09T10:35:16;7.57;;;4.28;;
56537;SDS011;42435;53.292;6.000;2023-07-09T10:41:09;5.85;;;4.28;;
56537;SDS011;42435;53.292;6.000;2023-07-09T10:43:38;5.30;;;4.53;;
56537;SDS011;42435;53.292;6.000;2023-07-09T10:46:11;8.13;;;4.30;;
56537;SDS011;42435;53.292;6.000;2023-07-09T10:48:41;5.80;;;4.65;;
56537;SDS011;42435;53.292;6.000;2023-07-09T10:51:13;6.80;;;4.82;;
56537;SDS011;42435;53.292;6.000;2023-07-09T10:53:51;8.05;;;5.88;;
56537;SDS011;42435;53.292;6.000;2023-07-09T10:56:27;6.35;;;4.68;;
56537;SDS011;42435;53.292;6.000;2023-07-09T11:01:48;7.82;;;5.38;;
56537;SDS011;42435;53.292;6.000;2023-07-09T11:04:20;5.97;;;4.28;;
56537;SDS011;42435;53.292;6.000;2023-07-09T11:07:04;7.65;;;5.25;;
56537;SDS011;42435;53.292;6.000;2023-07-09T11:09:38;5.03;;;4.35;;
56537;SDS011;42435;53.292;6.000;2023-07-09T11:12:18;6.10;;;4.88;;
56537;SDS011;42435;53.292;6.000;2023-07-09T11:15:01;5.70;;;5.07;;
56537;SDS011;42435;53.292;6.000;2023-07-09T11:17:28;7.35;;;5.20;;
56537;SDS011;42435;53.292;6.000;2023-07-09T11:19:55;8.10;;;4.47;;
56537;SDS011;42435;53.292;6.000;2023-07-09T11:22:40;6.18;;;4.78;;
56537;SDS011;42435;53.292;6.000;2023-07-09T11:25:07;5.13;;;4.28;;
56537;SDS011;42435;53.292;6.000;2023-07-09T11:27:49;6.82;;;4.20;;
56537;SDS011;42435;53.292;6.000;2023-07-09T11:30:18;6.28;;;4.28;;
56537;SDS011;42435;53.292;6.000;2023-07-09T11:32:53;5.90;;;3.95;;
56537;SDS011;42435;53.292;6.000;2023-07-09T11:35:25;8.90;;;4.20;;
56537;SDS011;42435;53.292;6.000;2023-07-09T11:37:54;7.03;;;4.70;;
56537;SDS011;42435;53.292;6.000;2023-07-09T11:40:21;6.97;;;4.57;;
56537;SDS011;42435;53.292;6.000;2023-07-09T11:45:30;4.90;;;4.05;;
56537;SDS011;42435;53.292;6.000;2023-07-09T11:50:35;5.82;;;4.47;;
56537;SDS011;42435;53.292;6.000;2023-07-09T11:55:55;6.78;;;4.35;;
56537;SDS011;42435;53.292;6.000;2023-07-09T11:58:20;5.28;;;4.72;;
56537;SDS011;42435;53.292;6.000;2023-07-09T12:00:47;5.57;;;4.13;;
56537;SDS011;42435;53.292;6.000;2023-07-09T12:03:19;6.03;;;4.53;;
56537;SDS011;42435;53.292;6.000;2023-07-09T12:06:22;6.82;;;4.57;;
56537;SDS011;42435;53.292;6.000;2023-07-09T12:08:46;7.72;;;4.40;;
56537;SDS011;42435;53.292;6.000;2023-07-09T12:11:18;10.27;;;5.20;;
56537;SDS011;42435;53.292;6.000;2023-07-09T12:13:54;5.43;;;4.30;;
56537;SDS011;42435;53.292;6.000;2023-07-09T12:16:31;7.95;;;5.18;;
56537;SDS011;42435;53.292;6.000;2023-07-09T12:18:59;5.75;;;4.75;;
56537;SDS011;42435;53.292;6.000;2023-07-09T12:21:25;5.57;;;5.07;;
56537;SDS011;42435;53.292;6.000;2023-07-09T12:23:52;5.65;;;5.05;;
56537;SDS011;42435;53.292;6.000;2023-07-09T12:26:19;6.10;;;4.35;;
56537;SDS011;42435;53.292;6.000;2023-07-09T12:28:56;5.95;;;4.38;;
56537;SDS011;42435;53.292;6.000;2023-07-09T12:31:27;6.32;;;4.72;;
56537;SDS011;42435;53.292;6.000;2023-07-09T12:33:54;9.38;;;5.03;;
56537;SDS011;42435;53.292;6.000;2023-07-09T12:36:22;5.28;;;4.78;;
56537;SDS011;42435;53.292;6.000;2023-07-09T12:38:50;4.90;;;4.47;;
56537;SDS011;42435;53.292;6.000;2023-07-09T12:41:22;6.97;;;4.38;;
56537;SDS011;42435;53.292;6.000;2023-07-09T12:43:49;6.07;;;4.40;;
56537;SDS011;42435;53.292;6.000;2023-07-09T12:46:19;6.72;;;4.90;;
56537;SDS011;42435;53.292;6.000;2023-07-09T12:48:46;5.97;;;5.03;;
56537;SDS011;42435;53.292;6.000;2023-07-09T12:51:25;6.57;;;5.18;;
56537;SDS011;42435;53.292;6.000;2023-07-09T12:54:01;8.23;;;5.55;;
56537;SDS011;42435;53.292;6.000;2023-07-09T12:56:52;6.80;;;5.13;;
56537;SDS011;42435;53.292;6.000;2023-07-09T12:59:20;6.88;;;5.20;;
56537;SDS011;42435;53.292;6.000;2023-07-09T13:02:01;6.75;;;5.30;;
56537;SDS011;42435;53.292;6.000;2023-07-09T13:04:37;6.53;;;4.70;;
56537;SDS011;42435;53.292;6.000;2023-07-09T13:07:04;5.72;;;5.10;;
56537;SDS011;42435;53.292;6.000;2023-07-09T13:09:30;7.82;;;4.55;;
56537;SDS011;42435;53.292;6.000;2023-07-09T13:11:56;6.38;;;5.38;;
56537;SDS011;42435;53.292;6.000;2023-07-09T13:14:24;6.28;;;4.80;;
56537;SDS011;42435;53.292;6.000;2023-07-09T13:17:04;8.23;;;4.80;;
56537;SDS011;42435;53.292;6.000;2023-07-09T13:19:31;6.70;;;5.15;;
56537;SDS011;42435;53.292;6.000;2023-07-09T13:21:56;6.70;;;5.32;;
56537;SDS011;42435;53.292;6.000;2023-07-09T13:24:23;8.73;;;5.43;;
56537;SDS011;42435;53.292;6.000;2023-07-09T13:26:51;7.40;;;5.78;;
56537;SDS011;42435;53.292;6.000;2023-07-09T13:29:17;9.40;;;4.68;;
56537;SDS011;42435;53.292;6.000;2023-07-09T13:31:44;7.00;;;5.07;;
56537;SDS011;42435;53.292;6.000;2023-07-09T13:34:25;7.03;;;5.20;;
56537;SDS011;42435;53.292;6.000;2023-07-09T13:36:52;7.70;;;6.07;;
56537;SDS011;42435;53.292;6.000;2023-07-09T13:39:21;6.90;;;5.32;;
56537;SDS011;42435;53.292;6.000;2023-07-09T13:41:48;8.52;;;5.70;;
56537;SDS011;42435;53.292;6.000;2023-07-09T13:44:16;6.60;;;5.63;;
56537;SDS011;42435;53.292;6.000;2023-07-09T13:46:47;9.95;;;5.93;;
56537;SDS011;42435;53.292;6.000;2023-07-09T13:49:14;7.20;;;5.18;;
56537;SDS011;42435;53.292;6.000;2023-07-09T13:51:42;7.10;;;5.60;;
56537;SDS011;42435;53.292;6.000;2023-07-09T13:54:29;6.95;;;5.00;;
56537;SDS011;42435;53.292;6.000;2023-07-09T13:57:00;6.97;;;5.03;;
56537;SDS011;42435;53.292;6.000;2023-07-09T13:59:27;6.10;;;4.50;;
56537;SDS011;42435;53.292;6.000;2023-07-09T14:01:54;8.38;;;5.63;;
56537;SDS011;42435;53.292;6.000;2023-07-09T14:04:21;6.43;;;5.35;;
56537;SDS011;42435;53.292;6.000;2023-07-09T14:06:47;7.10;;;5.07;;
56537;SDS011;42435;53.292;6.000;2023-07-09T14:09:13;6.65;;;5.05;;
56537;SDS011;42435;53.292;6.000;2023-07-09T14:11:49;8.77;;;5.32;;
56537;SDS011;42435;53.292;6.000;2023-07-09T14:14:21;6.50;;;5.45;;
56537;SDS011;42435;53.292;6.000;2023-07-09T14:19:22;6.78;;;4.30;;
56537;SDS011;42435;53.292;6.000;2023-07-09T14:21:49;5.85;;;4.30;;
56537;SDS011;42435;53.292;6.000;2023-07-09T14:26:43;8.38;;;5.22;;
56537;SDS011;42435;53.292;6.000;2023-07-09T14:29:10;8.20;;;4.78;;
56537;SDS011;42435;53.292;6.000;2023-07-09T14:31:40;5.30;;;4.50;;
56537;SDS011;42435;53.292;6.000;2023-07-09T14:36:50;6.13;;;3.50;;
56537;SDS011;42435;53.292;6.000;2023-07-09T14:39:16;5.95;;;3.70;;
56537;SDS011;42435;53.292;6.000;2023-07-09T14:41:44;5.88;;;4.30;;
56537;SDS011;42435;53.292;6.000;2023-07-09T14:44:23;6.13;;;3.90;;
56537;SDS011;42435;53.292;6.000;2023-07-09T14:46:50;4.07;;;2.83;;
56537;SDS011;42435;53.292;6.000;2023-07-09T14:49:17;5.95;;;3.13;;
56537;SDS011;42435;53.292;6.000;2023-07-09T14:51:43;7.35;;;3.65;;
56537;SDS011;42435;53.292;6.000;2023-07-09T14:54:23;4.38;;;3.35;;
56537;SDS011;42435;53.292;6.000;2023-07-09T14:56:53;14.88;;;4.95;;
56537;SDS011;42435;53.292;6.000;2023-07-09T14:59:20;7.25;;;4.70;;
56537;SDS011;42435;53.292;6.000;2023-07-09T15:01:46;6.50;;;5.05;;
56537;SDS011;42435;53.292;6.000;2023-07-09T15:04:45;9.77;;;4.90;;
56537;SDS011;42435;53.292;6.000;2023-07-09T15:07:07;10.73;;;5.95;;
56537;SDS011;42435;53.292;6.000;2023-07-09T15:09:35;11.90;;;6.25;;
56537;SDS011;42435;53.292;6.000;2023-07-09T15:12:10;11.65;;;6.65;;
56537;SDS011;42435;53.292;6.000;2023-07-09T15:14:41;12.10;;;5.78;;
56537;SDS011;42435;53.292;6.000;2023-07-09T15:17:08;12.82;;;7.47;;
56537;SDS011;42435;53.292;6.000;2023-07-09T15:19:35;17.70;;;8.57;;
56537;SDS011;42435;53.292;6.000;2023-07-09T15:22:01;19.48;;;8.50;;
56537;SDS011;42435;53.292;6.000;2023-07-09T15:24:27;31.73;;;10.80;;
56537;SDS011;42435;53.292;6.000;2023-07-09T15:26:56;40.20;;;12.82;;
56537;SDS011;42435;53.292;6.000;2023-07-09T15:29:25;20.65;;;10.27;;